Aviation Digital Data Service (ADDS)

Output produced by METARs form (0058 UTC 19 August 2019)
found at http://www.aviationweather.gov/metar/data/
 
METAR text: HEGN 190000Z 29006KT CAVOK 29/11 Q1006 NOSIG
Conditions at: HEGN (HURGUADA , EG) observed 0000 UTC 19 August 2019
Temperature: 29.0°C (84°F)
Dewpoint: 11.0°C (52°F) [RH = 33%]
Pressure (altimeter): 29.70 inches Hg (1006.0 mb)
Winds: from the WNW (290 degrees) at 7 MPH (6 knots; 3.1 m/s)
Visibility: 6 or more miles (10+ km)
Ceiling: ceiling and visibility are OK
Clouds: unknown
Weather: no significant weather observed at this time

METAR text: HEGN 182300Z 28008KT CAVOK 31/11 Q1005 NOSIG
Conditions at: HEGN (HURGUADA , EG) observed 2300 UTC 18 August 2019
Temperature: 31.0°C (88°F)
Dewpoint: 11.0°C (52°F) [RH = 29%]
Pressure (altimeter): 29.68 inches Hg (1005.0 mb)
Winds: from the W (280 degrees) at 9 MPH (8 knots; 4.1 m/s)
Visibility: 6 or more miles (10+ km)
Ceiling: ceiling and visibility are OK
Clouds: unknown
Weather: no significant weather observed at this time

METAR text: HEGN 182200Z 30010KT CAVOK 31/10 Q1006 NOSIG
Conditions at: HEGN (HURGUADA , EG) observed 2200 UTC 18 August 2019
Temperature: 31.0°C (88°F)
Dewpoint: 10.0°C (50°F) [RH = 27%]
Pressure (altimeter): 29.70 inches Hg (1006.0 mb)
Winds: from the WNW (300 degrees) at 12 MPH (10 knots; 5.1 m/s)
Visibility: 6 or more miles (10+ km)
Ceiling: ceiling and visibility are OK
Clouds: unknown
Weather: no significant weather observed at this time

METAR text: HEGN 182100Z 25009KT CAVOK 31/11 Q1006 NOSIG
Conditions at: HEGN (HURGUADA , EG) observed 2100 UTC 18 August 2019
Temperature: 31.0°C (88°F)
Dewpoint: 11.0°C (52°F) [RH = 29%]
Pressure (altimeter): 29.70 inches Hg (1006.0 mb)
Winds: from the WSW (250 degrees) at 10 MPH (9 knots; 4.6 m/s)
Visibility: 6 or more miles (10+ km)
Ceiling: ceiling and visibility are OK
Clouds: unknown
Weather: no significant weather observed at this time

METAR text: HEGN 182000Z 25005KT CAVOK 32/11 Q1006 NOSIG
Conditions at: HEGN (HURGUADA , EG) observed 2000 UTC 18 August 2019
Temperature: 32.0°C (90°F)
Dewpoint: 11.0°C (52°F) [RH = 28%]
Pressure (altimeter): 29.70 inches Hg (1006.0 mb)
Winds: from the WSW (250 degrees) at 6 MPH (5 knots; 2.6 m/s)
Visibility: 6 or more miles (10+ km)
Ceiling: ceiling and visibility are OK
Clouds: unknown
Weather: no significant weather observed at this time

METAR text: HEGN 181900Z 28008KT CAVOK 33/10 Q1006 NOSIG
Conditions at: HEGN (HURGUADA , EG) observed 1900 UTC 18 August 2019
Temperature: 33.0°C (91°F)
Dewpoint: 10.0°C (50°F) [RH = 24%]
Pressure (altimeter): 29.70 inches Hg (1006.0 mb)
Winds: from the W (280 degrees) at 9 MPH (8 knots; 4.1 m/s)
Visibility: 6 or more miles (10+ km)
Ceiling: ceiling and visibility are OK
Clouds: unknown
Weather: no significant weather observed at this time

METAR text: HEGN 181800Z 28008KT CAVOK 34/12 Q1005 NOSIG
Conditions at: HEGN (HURGUADA , EG) observed 1800 UTC 18 August 2019
Temperature: 34.0°C (93°F)
Dewpoint: 12.0°C (54°F) [RH = 26%]
Pressure (altimeter): 29.68 inches Hg (1005.0 mb)
Winds: from the W (280 degrees) at 9 MPH (8 knots; 4.1 m/s)
Visibility: 6 or more miles (10+ km)
Ceiling: ceiling and visibility are OK
Clouds: unknown
Weather: no significant weather observed at this time

METAR text: HEGN 181700Z 32016KT CAVOK 34/14 Q1004 NOSIG
Conditions at: HEGN (HURGUADA , EG) observed 1700 UTC 18 August 2019
Temperature: 34.0°C (93°F)
Dewpoint: 14.0°C (57°F) [RH = 30%]
Pressure (altimeter): 29.65 inches Hg (1004.0 mb)
Winds: from the NW (320 degrees) at 18 MPH (16 knots; 8.2 m/s)
Visibility: 6 or more miles (10+ km)
Ceiling: ceiling and visibility are OK
Clouds: unknown
Weather: no significant weather observed at this time

METAR text: HEGN 181600Z 33014KT CAVOK 35/13 Q1004 NOSIG
Conditions at: HEGN (HURGUADA , EG) observed 1600 UTC 18 August 2019
Temperature: 35.0°C (95°F)
Dewpoint: 13.0°C (55°F) [RH = 27%]
Pressure (altimeter): 29.65 inches Hg (1004.0 mb)
Winds: from the NNW (330 degrees) at 16 MPH (14 knots; 7.2 m/s)
Visibility: 6 or more miles (10+ km)
Ceiling: ceiling and visibility are OK
Clouds: unknown
Weather: no significant weather observed at this time

METAR text: HEGN 181400Z WIND 340/19KT WEATHER CAVOK T 37 DP 12 Q1004 NOSIG
Conditions at: HEGN (HURGUADA , EG) observed 1400 UTC 18 August 2019
Temperature: missing
Dewpoint: missing
Pressure (altimeter): 29.65 inches Hg (1004.0 mb)
Winds: missing
Visibility: 6 or more miles (10+ km)
Ceiling: ceiling and visibility are OK
Clouds: unknown
Weather: no significant weather observed at this time

METAR text: HEGN 181300Z 35019KT CAVOK 37/14 Q1004 NOSIG
Conditions at: HEGN (HURGUADA , EG) observed 1300 UTC 18 August 2019
Temperature: 37.0°C (99°F)
Dewpoint: 14.0°C (57°F) [RH = 25%]
Pressure (altimeter): 29.65 inches Hg (1004.0 mb)
Winds: from the N (350 degrees) at 22 MPH (19 knots; 9.8 m/s)
Visibility: 6 or more miles (10+ km)
Ceiling: ceiling and visibility are OK
Clouds: unknown
Weather: no significant weather observed at this time

METAR text: HEGN 181200Z WIND 350/19KT WEATHER CAVOK T 37 DP 14 Q1004 NOSIG
Conditions at: HEGN (HURGUADA , EG) observed 1200 UTC 18 August 2019
Temperature: missing
Dewpoint: missing
Pressure (altimeter): 29.65 inches Hg (1004.0 mb)
Winds: missing
Visibility: 6 or more miles (10+ km)
Ceiling: ceiling and visibility are OK
Clouds: unknown
Weather: no significant weather observed at this time

METAR text: HEGN 181100Z 35016KT CAVOK 36/17 Q1005 NOSIG
Conditions at: HEGN (HURGUADA , EG) observed 1100 UTC 18 August 2019
Temperature: 36.0°C (97°F)
Dewpoint: 17.0°C (63°F) [RH = 33%]
Pressure (altimeter): 29.68 inches Hg (1005.0 mb)
Winds: from the N (350 degrees) at 18 MPH (16 knots; 8.2 m/s)
Visibility: 6 or more miles (10+ km)
Ceiling: ceiling and visibility are OK
Clouds: unknown
Weather: no significant weather observed at this time

METAR text: HEGN 181000Z 35016KT CAVOK 36/17 Q1005 NOSIG
Conditions at: HEGN (HURGUADA , EG) observed 1000 UTC 18 August 2019
Temperature: 36.0°C (97°F)
Dewpoint: 17.0°C (63°F) [RH = 33%]
Pressure (altimeter): 29.68 inches Hg (1005.0 mb)
Winds: from the N (350 degrees) at 18 MPH (16 knots; 8.2 m/s)
Visibility: 6 or more miles (10+ km)
Ceiling: ceiling and visibility are OK
Clouds: unknown
Weather: no significant weather observed at this time

METAR text: HEGN 180900Z 34017KT CAVOK 35/18 Q1006 NOSIG
Conditions at: HEGN (HURGUADA , EG) observed 0900 UTC 18 August 2019
Temperature: 35.0°C (95°F)
Dewpoint: 18.0°C (64°F) [RH = 37%]
Pressure (altimeter): 29.70 inches Hg (1006.0 mb)
Winds: from the NNW (340 degrees) at 20 MPH (17 knots; 8.7 m/s)
Visibility: 6 or more miles (10+ km)
Ceiling: ceiling and visibility are OK
Clouds: unknown
Weather: no significant weather observed at this time

METAR text: HEGN 180800Z 34017KT CAVOK 34/19 Q1006 NOSIG
Conditions at: HEGN (HURGUADA , EG) observed 0800 UTC 18 August 2019
Temperature: 34.0°C (93°F)
Dewpoint: 19.0°C (66°F) [RH = 41%]
Pressure (altimeter): 29.70 inches Hg (1006.0 mb)
Winds: from the NNW (340 degrees) at 20 MPH (17 knots; 8.7 m/s)
Visibility: 6 or more miles (10+ km)
Ceiling: ceiling and visibility are OK
Clouds: unknown
Weather: no significant weather observed at this time

METAR text: HEGN 180700Z 33017KT CAVOK 34/20 Q1007 NOSIG
Conditions at: HEGN (HURGUADA , EG) observed 0700 UTC 18 August 2019
Temperature: 34.0°C (93°F)
Dewpoint: 20.0°C (68°F) [RH = 44%]
Pressure (altimeter): 29.73 inches Hg (1007.0 mb)
Winds: from the NNW (330 degrees) at 20 MPH (17 knots; 8.7 m/s)
Visibility: 6 or more miles (10+ km)
Ceiling: ceiling and visibility are OK
Clouds: unknown
Weather: no significant weather observed at this time

METAR text: HEGN 180600Z 31014KT CAVOK 33/16 Q1007 NOSIG
Conditions at: HEGN (HURGUADA , EG) observed 0600 UTC 18 August 2019
Temperature: 33.0°C (91°F)
Dewpoint: 16.0°C (61°F) [RH = 36%]
Pressure (altimeter): 29.73 inches Hg (1007.0 mb)
Winds: from the NW (310 degrees) at 16 MPH (14 knots; 7.2 m/s)
Visibility: 6 or more miles (10+ km)
Ceiling: ceiling and visibility are OK
Clouds: unknown
Weather: no significant weather observed at this time

METAR text: HEGN 180500Z 30011KT CAVOK 32/14 Q1006 NOSIG
Conditions at: HEGN (HURGUADA , EG) observed 0500 UTC 18 August 2019
Temperature: 32.0°C (90°F)
Dewpoint: 14.0°C (57°F) [RH = 34%]
Pressure (altimeter): 29.70 inches Hg (1006.0 mb)
Winds: from the WNW (300 degrees) at 13 MPH (11 knots; 5.7 m/s)
Visibility: 6 or more miles (10+ km)
Ceiling: ceiling and visibility are OK
Clouds: unknown
Weather: no significant weather observed at this time

METAR text: HEGN 180400Z 29012KT CAVOK 31/14 Q1006 NOSIG
Conditions at: HEGN (HURGUADA , EG) observed 0400 UTC 18 August 2019
Temperature: 31.0°C (88°F)
Dewpoint: 14.0°C (57°F) [RH = 36%]
Pressure (altimeter): 29.70 inches Hg (1006.0 mb)
Winds: from the WNW (290 degrees) at 14 MPH (12 knots; 6.2 m/s)
Visibility: 6 or more miles (10+ km)
Ceiling: ceiling and visibility are OK
Clouds: unknown
Weather: no significant weather observed at this time

METAR text: HEGN 180300Z 28010KT CAVOK 30/13 Q1006 NOSIG
Conditions at: HEGN (HURGUADA , EG) observed 0300 UTC 18 August 2019
Temperature: 30.0°C (86°F)
Dewpoint: 13.0°C (55°F) [RH = 35%]
Pressure (altimeter): 29.70 inches Hg (1006.0 mb)
Winds: from the W (280 degrees) at 12 MPH (10 knots; 5.1 m/s)
Visibility: 6 or more miles (10+ km)
Ceiling: ceiling and visibility are OK
Clouds: unknown
Weather: no significant weather observed at this time

METAR text: HEGN 180200Z 28010KT CAVOK 31/12 Q1006 NOSIG
Conditions at: HEGN (HURGUADA , EG) observed 0200 UTC 18 August 2019
Temperature: 31.0°C (88°F)
Dewpoint: 12.0°C (54°F) [RH = 31%]
Pressure (altimeter): 29.70 inches Hg (1006.0 mb)
Winds: from the W (280 degrees) at 12 MPH (10 knots; 5.1 m/s)
Visibility: 6 or more miles (10+ km)
Ceiling: ceiling and visibility are OK
Clouds: unknown
Weather: no significant weather observed at this time

METAR text: HEGN 180100Z 28011KT CAVOK 32/12 Q1005 NOSIG
Conditions at: HEGN (HURGUADA , EG) observed 0100 UTC 18 August 2019
Temperature: 32.0°C (90°F)
Dewpoint: 12.0°C (54°F) [RH = 30%]
Pressure (altimeter): 29.68 inches Hg (1005.0 mb)
Winds: from the W (280 degrees) at 13 MPH (11 knots; 5.7 m/s)
Visibility: 6 or more miles (10+ km)
Ceiling: ceiling and visibility are OK
Clouds: unknown
Weather: no significant weather observed at this time

METAR text: HEGN 180000Z 28012KT CAVOK 32/11 Q1005 NOSIG
Conditions at: HEGN (HURGUADA , EG) observed 0000 UTC 18 August 2019
Temperature: 32.0°C (90°F)
Dewpoint: 11.0°C (52°F) [RH = 28%]
Pressure (altimeter): 29.68 inches Hg (1005.0 mb)
Winds: from the W (280 degrees) at 14 MPH (12 knots; 6.2 m/s)
Visibility: 6 or more miles (10+ km)
Ceiling: ceiling and visibility are OK
Clouds: unknown
Weather: no significant weather observed at this time

METAR text: HEGN 172300Z 28015KT CAVOK 32/10 Q1005 NOSIG
Conditions at: HEGN (HURGUADA , EG) observed 2300 UTC 17 August 2019
Temperature: 32.0°C (90°F)
Dewpoint: 10.0°C (50°F) [RH = 26%]
Pressure (altimeter): 29.68 inches Hg (1005.0 mb)
Winds: from the W (280 degrees) at 17 MPH (15 knots; 7.7 m/s)
Visibility: 6 or more miles (10+ km)
Ceiling: ceiling and visibility are OK
Clouds: unknown
Weather: no significant weather observed at this time

METAR text: HEGN 172200Z 28012KT CAVOK 33/11 Q1005 NOSIG
Conditions at: HEGN (HURGUADA , EG) observed 2200 UTC 17 August 2019
Temperature: 33.0°C (91°F)
Dewpoint: 11.0°C (52°F) [RH = 26%]
Pressure (altimeter): 29.68 inches Hg (1005.0 mb)
Winds: from the W (280 degrees) at 14 MPH (12 knots; 6.2 m/s)
Visibility: 6 or more miles (10+ km)
Ceiling: ceiling and visibility are OK
Clouds: unknown
Weather: no significant weather observed at this time

METAR text: HEGN 172100Z 27010KT CAVOK 33/11 Q1005 NOSIG
Conditions at: HEGN (HURGUADA , EG) observed 2100 UTC 17 August 2019
Temperature: 33.0°C (91°F)
Dewpoint: 11.0°C (52°F) [RH = 26%]
Pressure (altimeter): 29.68 inches Hg (1005.0 mb)
Winds: from the W (270 degrees) at 12 MPH (10 knots; 5.1 m/s)
Visibility: 6 or more miles (10+ km)
Ceiling: ceiling and visibility are OK
Clouds: unknown
Weather: no significant weather observed at this time

METAR text: HEGN 172000Z 27009KT CAVOK 34/06 Q1005 NOSIG
Conditions at: HEGN (HURGUADA , EG) observed 2000 UTC 17 August 2019
Temperature: 34.0°C (93°F)
Dewpoint: 6.0°C (43°F) [RH = 18%]
Pressure (altimeter): 29.68 inches Hg (1005.0 mb)
Winds: from the W (270 degrees) at 10 MPH (9 knots; 4.6 m/s)
Visibility: 6 or more miles (10+ km)
Ceiling: ceiling and visibility are OK
Clouds: unknown
Weather: no significant weather observed at this time

METAR text: HEGN 171900Z 30004KT CAVOK 34/04 Q1005 NOSIG
Conditions at: HEGN (HURGUADA , EG) observed 1900 UTC 17 August 2019
Temperature: 34.0°C (93°F)
Dewpoint: 4.0°C (39°F) [RH = 15%]
Pressure (altimeter): 29.68 inches Hg (1005.0 mb)
Winds: from the WNW (300 degrees) at 5 MPH (4 knots; 2.1 m/s)
Visibility: 6 or more miles (10+ km)
Ceiling: ceiling and visibility are OK
Clouds: unknown
Weather: no significant weather observed at this time

METAR text: HEGN 171800Z 31015KT CAVOK 36/05 Q1005 NOSIG
Conditions at: HEGN (HURGUADA , EG) observed 1800 UTC 17 August 2019
Temperature: 36.0°C (97°F)
Dewpoint: 5.0°C (41°F) [RH = 15%]
Pressure (altimeter): 29.68 inches Hg (1005.0 mb)
Winds: from the NW (310 degrees) at 17 MPH (15 knots; 7.7 m/s)
Visibility: 6 or more miles (10+ km)
Ceiling: ceiling and visibility are OK
Clouds: unknown
Weather: no significant weather observed at this time

METAR text: HEGN 171700Z 30009KT CAVOK 37/08 Q1004 NOSIG
Conditions at: HEGN (HURGUADA , EG) observed 1700 UTC 17 August 2019
Temperature: 37.0°C (99°F)
Dewpoint: 8.0°C (46°F) [RH = 17%]
Pressure (altimeter): 29.65 inches Hg (1004.0 mb)
Winds: from the WNW (300 degrees) at 10 MPH (9 knots; 4.6 m/s)
Visibility: 6 or more miles (10+ km)
Ceiling: ceiling and visibility are OK
Clouds: unknown
Weather: no significant weather observed at this time

METAR text: HEGN 171600Z 33010KT CAVOK 38/08 Q1004 NOSIG
Conditions at: HEGN (HURGUADA , EG) observed 1600 UTC 17 August 2019
Temperature: 38.0°C (100°F)
Dewpoint: 8.0°C (46°F) [RH = 16%]
Pressure (altimeter): 29.65 inches Hg (1004.0 mb)
Winds: from the NNW (330 degrees) at 12 MPH (10 knots; 5.1 m/s)
Visibility: 6 or more miles (10+ km)
Ceiling: ceiling and visibility are OK
Clouds: unknown
Weather: no significant weather observed at this time

METAR text: HEGN 171500Z 33011KT CAVOK 39/09 Q1004 NOSIG
Conditions at: HEGN (HURGUADA , EG) observed 1500 UTC 17 August 2019
Temperature: 39.0°C (102°F)
Dewpoint: 9.0°C (48°F) [RH = 16%]
Pressure (altimeter): 29.65 inches Hg (1004.0 mb)
Winds: from the NNW (330 degrees) at 13 MPH (11 knots; 5.7 m/s)
Visibility: 6 or more miles (10+ km)
Ceiling: ceiling and visibility are OK
Clouds: unknown
Weather: no significant weather observed at this time

METAR text: HEGN 171400Z 34014KT CAVOK 40/08 Q1004 NOSIG
Conditions at: HEGN (HURGUADA , EG) observed 1400 UTC 17 August 2019
Temperature: 40.0°C (104°F)
Dewpoint: 8.0°C (46°F) [RH = 15%]
Pressure (altimeter): 29.65 inches Hg (1004.0 mb)
Winds: from the NNW (340 degrees) at 16 MPH (14 knots; 7.2 m/s)
Visibility: 6 or more miles (10+ km)
Ceiling: ceiling and visibility are OK
Clouds: unknown
Weather: no significant weather observed at this time

METAR text: HEGN 171300Z 34018KT CAVOK 40/08 Q1004 NOSIG
Conditions at: HEGN (HURGUADA , EG) observed 1300 UTC 17 August 2019
Temperature: 40.0°C (104°F)
Dewpoint: 8.0°C (46°F) [RH = 15%]
Pressure (altimeter): 29.65 inches Hg (1004.0 mb)
Winds: from the NNW (340 degrees) at 21 MPH (18 knots; 9.3 m/s)
Visibility: 6 or more miles (10+ km)
Ceiling: ceiling and visibility are OK
Clouds: unknown
Weather: no significant weather observed at this time

Forecast for: HEGN (HURGUADA , EG)
Text: TAF HEGN 182300Z 1900/2006 29012KT CAVOK
Forecast period: 0000 UTC 19 August 2019 to 0600 UTC 20 August 2019
Forecast type: FROM: standard forecast or significant change
Winds: from the WNW (290 degrees) at 14 MPH (12 knots; 6.2 m/s)
Visibility: 6 or more miles 10+ km)
Ceiling: unknown
Clouds: missing
Weather: NSW  (no significant weather)